createdAt,value
2019-05-16T00:00:25.292Z,0.0000
2019-05-16T00:01:29.950Z,0.0000
2019-05-16T00:02:33.305Z,0.0000
2019-05-16T00:03:38.288Z,0.0000
2019-05-16T00:04:41.280Z,0.0000
2019-05-16T00:05:53.368Z,0.0000
2019-05-16T00:06:52.300Z,0.0000
2019-05-16T00:07:55.304Z,0.0000
2019-05-16T00:08:58.572Z,0.0000
2019-05-16T00:10:01.308Z,0.0000
2019-05-16T00:11:04.270Z,0.0000
2019-05-16T00:12:08.802Z,0.0000
2019-05-16T00:13:12.273Z,0.0000
2019-05-16T00:14:15.313Z,0.0000
2019-05-16T00:15:18.405Z,0.0000
2019-05-16T00:16:22.317Z,0.0000
2019-05-16T00:17:25.267Z,0.0000
2019-05-16T00:18:28.517Z,0.0000
2019-05-16T00:19:30.360Z,0.0000
2019-05-16T00:20:33.290Z,0.0000
2019-05-16T00:21:38.215Z,0.0000
2019-05-16T00:22:43.321Z,0.0000
2019-05-16T00:23:48.300Z,0.0000
2019-05-16T00:24:51.332Z,0.0000
2019-05-16T00:25:54.275Z,0.0000
2019-05-16T00:26:58.001Z,0.0000
2019-05-16T00:28:01.303Z,0.0000
2019-05-16T00:29:04.295Z,0.0000
2019-05-16T00:30:08.617Z,0.0000
2019-05-16T00:31:12.315Z,0.0000
2019-05-16T00:32:15.281Z,0.0000
2019-05-16T00:33:18.467Z,0.0000
2019-05-16T00:34:21.291Z,0.0000
2019-05-16T00:35:24.338Z,0.0000
2019-05-16T00:36:27.803Z,0.0000
2019-05-16T00:37:31.267Z,0.0000
2019-05-16T00:38:34.311Z,0.0000
2019-05-16T00:39:38.796Z,0.0000
2019-05-16T00:40:42.372Z,0.0000
2019-05-16T00:41:45.264Z,0.0000
2019-05-16T00:42:49.105Z,0.0000
2019-05-16T00:43:52.285Z,0.0000
2019-05-16T00:44:55.331Z,0.0000
2019-05-16T00:45:58.947Z,0.0000
2019-05-16T00:47:02.332Z,0.0000
2019-05-16T00:48:05.282Z,0.0000
2019-05-16T00:49:08.483Z,0.0000
2019-05-16T00:50:11.366Z,0.0000
2019-05-16T00:51:14.285Z,0.0000
2019-05-16T00:52:18.367Z,0.0000
2019-05-16T00:53:21.311Z,0.0000
2019-05-16T00:54:24.336Z,0.0000
2019-05-16T00:55:28.366Z,0.0000
2019-05-16T00:56:31.277Z,0.0000
2019-05-16T00:57:33.340Z,0.0000
2019-05-16T00:58:37.804Z,0.0000
2019-05-16T00:59:41.326Z,0.0000
2019-05-16T01:00:44.282Z,0.0000
2019-05-16T01:01:50.060Z,0.0000
2019-05-16T01:02:53.299Z,0.0000
2019-05-16T01:03:58.468Z,0.0000
2019-05-16T01:05:01.328Z,0.0000
2019-05-16T01:06:15.834Z,0.0000
2019-05-16T01:07:12.281Z,0.0000
2019-05-16T01:08:15.305Z,0.0000
2019-05-16T01:09:18.848Z,0.0000
2019-05-16T01:10:22.295Z,0.0000
2019-05-16T01:11:27.634Z,0.0000
2019-05-16T01:12:29.309Z,0.0000
2019-05-16T01:13:32.301Z,0.0000
2019-05-16T01:14:35.311Z,0.0000
2019-05-16T01:15:38.319Z,0.0000
2019-05-16T01:16:41.291Z,0.0000
2019-05-16T01:17:44.324Z,0.0000
2019-05-16T01:18:48.617Z,0.0000
2019-05-16T01:19:52.341Z,0.0000
2019-05-16T01:20:55.303Z,0.0000
2019-05-16T01:21:59.014Z,0.0000
2019-05-16T01:23:02.306Z,0.0000
2019-05-16T01:24:05.318Z,0.0000
2019-05-16T01:25:09.412Z,0.0000
2019-05-16T01:26:12.313Z,0.0000
2019-05-16T01:27:15.291Z,0.0000
2019-05-16T01:28:19.294Z,0.0000
2019-05-16T01:29:22.299Z,0.0000
2019-05-16T01:30:25.344Z,0.0000
2019-05-16T01:31:28.303Z,0.0000
2019-05-16T01:32:32.213Z,0.0000
2019-05-16T01:33:35.291Z,0.0000
2019-05-16T01:34:38.352Z,0.0000
2019-05-16T01:35:41.836Z,0.0000
2019-05-16T01:36:45.342Z,0.0000
2019-05-16T01:37:48.748Z,0.0000
2019-05-16T01:38:52.349Z,0.0000
2019-05-16T01:39:55.295Z,0.0000
2019-05-16T01:40:58.483Z,0.0000
2019-05-16T01:42:01.310Z,0.0000
2019-05-16T01:43:03.283Z,0.0000
2019-05-16T01:44:07.870Z,0.0000
2019-05-16T01:45:11.327Z,0.0000
2019-05-16T01:46:18.048Z,0.0000
2019-05-16T01:47:23.305Z,0.0000
2019-05-16T01:48:29.150Z,0.0000
2019-05-16T01:49:34.291Z,0.0000
2019-05-16T01:50:38.818Z,0.0000
2019-05-16T01:51:42.277Z,0.0000
2019-05-16T01:52:45.302Z,0.0000
2019-05-16T01:53:48.845Z,0.0000
2019-05-16T01:54:51.266Z,0.0000
2019-05-16T01:55:54.352Z,0.0000
2019-05-16T01:56:59.377Z,0.0000
2019-05-16T01:58:03.352Z,0.0000
2019-05-16T01:59:08.869Z,0.0000
2019-05-16T02:00:11.295Z,0.0000
2019-05-16T02:01:15.911Z,0.0000
2019-05-16T02:02:19.305Z,0.0000
2019-05-16T02:03:22.312Z,0.0000
2019-05-16T02:04:25.274Z,0.0000
2019-05-16T02:05:28.306Z,0.0000
2019-05-16T02:06:31.298Z,0.0000
2019-05-16T02:07:34.322Z,0.0000
2019-05-16T02:08:38.032Z,0.0000
2019-05-16T02:09:41.308Z,0.0000
2019-05-16T02:10:44.276Z,0.0000
2019-05-16T02:11:48.107Z,0.0000
2019-05-16T02:12:51.289Z,0.0000
2019-05-16T02:13:54.293Z,0.0000
2019-05-16T02:14:58.728Z,0.0000
2019-05-16T02:16:02.297Z,0.0000
2019-05-16T02:17:05.332Z,0.0000
2019-05-16T02:18:08.479Z,0.0000
2019-05-16T02:19:11.325Z,0.0000
2019-05-16T02:20:14.305Z,0.0000
2019-05-16T02:21:18.189Z,0.0000
2019-05-16T02:22:21.296Z,0.0000
2019-05-16T02:23:24.285Z,0.0000
2019-05-16T02:24:28.494Z,0.0000
2019-05-16T02:25:30.280Z,0.0000
2019-05-16T02:26:33.328Z,0.0000
2019-05-16T02:27:40.598Z,0.0000
2019-05-16T02:28:44.341Z,0.0000
2019-05-16T02:29:47.270Z,0.0000
2019-05-16T02:30:51.368Z,0.0000
2019-05-16T02:31:55.289Z,0.0000
2019-05-16T02:33:01.088Z,0.0000
2019-05-16T02:34:04.806Z,0.0000
2019-05-16T02:35:11.264Z,0.0000
2019-05-16T02:36:15.331Z,0.0000
2019-05-16T02:37:25.811Z,0.0000
2019-05-16T02:38:26.315Z,0.0000
2019-05-16T02:39:30.589Z,0.0000
2019-05-16T02:40:33.306Z,0.0000
2019-05-16T02:41:36.257Z,0.0000
2019-05-16T02:42:41.951Z,0.0000
2019-05-16T02:43:45.279Z,0.0000
2019-05-16T02:44:51.105Z,0.0000
2019-05-16T02:45:54.252Z,0.0000
2019-05-16T02:46:57.248Z,0.0000
2019-05-16T02:48:01.346Z,0.0000
2019-05-16T02:49:04.294Z,0.0000
2019-05-16T02:50:06.311Z,0.0000
2019-05-16T02:51:11.079Z,0.0000
2019-05-16T02:52:14.319Z,0.0000
2019-05-16T02:53:17.307Z,0.0000
2019-05-16T02:54:21.813Z,0.0000
2019-05-16T02:55:25.303Z,0.0000
2019-05-16T02:56:27.319Z,0.0000
2019-05-16T02:57:31.660Z,0.0000
2019-05-16T02:58:35.303Z,0.0000
2019-05-16T02:59:41.275Z,0.0000
2019-05-16T03:00:44.286Z,0.0000
2019-05-16T03:01:47.315Z,0.0000
2019-05-16T03:02:50.523Z,0.0000
2019-05-16T03:03:53.323Z,0.0000
2019-05-16T03:04:56.284Z,0.0000
2019-05-16T03:06:01.392Z,0.0000
2019-05-16T03:07:04.315Z,0.0000
2019-05-16T03:08:07.284Z,0.0000
2019-05-16T03:09:11.243Z,1.0000
2019-05-16T03:10:14.299Z,1.0000
2019-05-16T03:11:20.711Z,1.0000
2019-05-16T03:12:23.272Z,1.0000
2019-05-16T03:13:26.337Z,1.0000
2019-05-16T03:14:31.619Z,2.0000
2019-05-16T03:15:34.298Z,2.0000
2019-05-16T03:16:37.284Z,2.0000
2019-05-16T03:17:40.446Z,3.0000
2019-05-16T03:18:43.331Z,3.0000
2019-05-16T03:19:46.284Z,3.0000
2019-05-16T03:20:51.007Z,4.0000
2019-05-16T03:21:54.277Z,5.0000
2019-05-16T03:22:57.324Z,6.0000
2019-05-16T03:24:00.854Z,7.0000
2019-05-16T03:25:04.298Z,8.0000
2019-05-16T03:26:07.285Z,10.0000
2019-05-16T03:27:10.825Z,11.0000
2019-05-16T03:28:14.305Z,13.0000
2019-05-16T03:29:17.314Z,16.0000
2019-05-16T03:30:23.728Z,18.0000
2019-05-16T03:31:26.282Z,22.0000
2019-05-16T03:32:34.060Z,26.0000
2019-05-16T03:33:48.442Z,31.0000
2019-05-16T03:34:45.328Z,36.0000
2019-05-16T03:35:53.657Z,41.0000
2019-05-16T03:36:56.336Z,49.0000
2019-05-16T03:38:01.451Z,56.0000
2019-05-16T03:39:10.488Z,65.0000
2019-05-16T03:40:13.274Z,75.0000
2019-05-16T03:41:16.319Z,86.0000
2019-05-16T03:42:20.461Z,98.0000
2019-05-16T03:43:23.277Z,111.0000
2019-05-16T03:44:26.352Z,125.0000
2019-05-16T03:45:31.791Z,139.0000
2019-05-16T03:46:36.377Z,156.0000
2019-05-16T03:47:42.619Z,174.0000
2019-05-16T03:48:46.346Z,194.0000
2019-05-16T03:49:51.728Z,214.0000
2019-05-16T03:50:55.284Z,236.0000
2019-05-16T03:52:01.342Z,257.0000
2019-05-16T03:53:04.306Z,283.0000
2019-05-16T03:54:07.352Z,307.0000
2019-05-16T03:55:10.999Z,333.0000
2019-05-16T03:56:14.295Z,360.0000
2019-05-16T03:57:20.907Z,387.0000
2019-05-16T03:58:24.310Z,417.0000
2019-05-16T03:59:27.326Z,447.0000
2019-05-16T04:00:31.586Z,475.0000
2019-05-16T04:01:33.296Z,508.0000
2019-05-16T04:02:35.489Z,536.0000
2019-05-16T04:03:41.229Z,571.0000
2019-05-16T04:04:44.301Z,607.0000
2019-05-16T04:05:47.282Z,642.0000
2019-05-16T04:06:50.764Z,674.0000
2019-05-16T04:08:10.161Z,711.0000
2019-05-16T04:09:01.717Z,750.0000
2019-05-16T04:10:06.352Z,784.0000
2019-05-16T04:11:11.734Z,822.0000
2019-05-16T04:12:14.262Z,860.0000
2019-05-16T04:13:17.302Z,894.0000
2019-05-16T04:14:21.365Z,937.0000
2019-05-16T04:15:24.265Z,976.0000
2019-05-16T04:16:31.318Z,1014.0000
2019-05-16T04:17:34.293Z,1053.0000
2019-05-16T04:18:37.277Z,1094.0000
2019-05-16T04:19:41.531Z,1139.0000
2019-05-16T04:20:44.300Z,1178.0000
2019-05-16T04:21:50.824Z,1213.0000
2019-05-16T04:22:54.300Z,1253.0000
2019-05-16T04:23:57.321Z,1294.0000
2019-05-16T04:25:01.896Z,1335.0000
2019-05-16T04:26:05.287Z,1375.0000
2019-05-16T04:27:07.291Z,1412.0000
2019-05-16T04:28:11.578Z,1456.0000
2019-05-16T04:29:14.333Z,1501.0000
2019-05-16T04:30:17.362Z,1542.0000
2019-05-16T04:31:22.087Z,1580.0000
2019-05-16T04:32:25.351Z,1620.0000
2019-05-16T04:33:30.987Z,1661.0000
2019-05-16T04:34:34.351Z,1700.0000
2019-05-16T04:35:37.288Z,1734.0000
2019-05-16T04:36:40.829Z,1770.0000
2019-05-16T04:37:44.321Z,1808.0000
2019-05-16T04:38:47.331Z,1843.0000
2019-05-16T04:39:50.764Z,1878.0000
2019-05-16T04:40:54.294Z,1914.0000
2019-05-16T04:41:57.306Z,1948.0000
2019-05-16T04:43:01.365Z,1973.0000
2019-05-16T04:44:04.907Z,2007.0000
2019-05-16T04:45:11.515Z,2039.0000
2019-05-16T04:46:14.317Z,2071.0000
2019-05-16T04:47:17.326Z,2103.0000
2019-05-16T04:48:22.290Z,2137.0000
2019-05-16T04:49:25.352Z,2173.0000
2019-05-16T04:50:30.968Z,2210.0000
2019-05-16T04:51:34.297Z,2255.0000
2019-05-16T04:52:37.291Z,2292.0000
2019-05-16T04:53:42.464Z,2328.0000
2019-05-16T04:54:46.350Z,2373.0000
2019-05-16T04:55:51.566Z,2411.0000
2019-05-16T04:56:54.327Z,2447.0000
2019-05-16T04:57:57.310Z,2478.0000
2019-05-16T04:59:00.550Z,2521.0000
2019-05-16T05:00:04.303Z,2551.0000
2019-05-16T05:01:07.329Z,2585.0000
2019-05-16T05:02:12.220Z,2618.0000
2019-05-16T05:03:16.298Z,2641.0000
2019-05-16T05:04:21.094Z,2657.0000
2019-05-16T05:05:24.339Z,2683.0000
2019-05-16T05:06:27.313Z,2714.0000
2019-05-16T05:07:31.242Z,2740.0000
2019-05-16T05:08:49.121Z,2760.0000
2019-05-16T05:09:42.326Z,2783.0000
2019-05-16T05:10:45.327Z,2818.0000
2019-05-16T05:11:48.289Z,2853.0000
2019-05-16T05:12:51.461Z,2885.0000
2019-05-16T05:13:55.290Z,2913.0000
2019-05-16T05:15:00.998Z,2950.0000
2019-05-16T05:16:04.306Z,2997.0000
2019-05-16T05:17:07.289Z,3033.0000
2019-05-16T05:18:10.347Z,3054.0000
2019-05-16T05:19:13.314Z,3073.0000
2019-05-16T05:20:16.331Z,3104.0000
2019-05-16T05:21:20.953Z,3137.0000
2019-05-16T05:22:24.302Z,3167.0000
2019-05-16T05:23:29.961Z,3189.0000
2019-05-16T05:24:33.313Z,3217.0000
2019-05-16T05:25:36.314Z,3240.0000
2019-05-16T05:26:41.460Z,3272.0000
2019-05-16T05:27:45.310Z,3293.0000
2019-05-16T05:28:50.573Z,3312.0000
2019-05-16T05:29:54.305Z,3339.0000
2019-05-16T05:30:59.549Z,3369.0000
2019-05-16T05:32:04.702Z,3415.0000
2019-05-16T05:33:10.117Z,3465.0000
2019-05-16T05:34:13.332Z,3501.0000
2019-05-16T05:35:15.313Z,3519.0000
2019-05-16T05:36:20.815Z,3546.0000
2019-05-16T05:37:24.290Z,3589.0000
2019-05-16T05:38:27.273Z,3606.0000
2019-05-16T05:39:30.451Z,3626.0000
2019-05-16T05:40:33.321Z,3652.0000
2019-05-16T05:41:36.365Z,3672.0000
2019-05-16T05:42:39.869Z,3683.0000
2019-05-16T05:43:42.340Z,3689.0000
2019-05-16T05:44:45.296Z,3702.0000
2019-05-16T05:45:50.901Z,3718.0000
2019-05-16T05:46:54.283Z,3769.0000
2019-05-16T05:48:00.003Z,3777.0000
2019-05-16T05:49:03.294Z,3782.0000
2019-05-16T05:50:06.304Z,3785.0000
2019-05-16T05:51:11.265Z,3800.0000
2019-05-16T05:52:15.307Z,3810.0000
2019-05-16T05:53:20.633Z,3815.0000
2019-05-16T05:54:24.282Z,3836.0000
2019-05-16T05:55:27.322Z,3871.0000
2019-05-16T05:56:30.612Z,3912.0000
2019-05-16T05:57:33.357Z,3936.0000
2019-05-16T05:58:36.304Z,3965.0000
2019-05-16T05:59:40.462Z,4021.0000
2019-05-16T06:00:43.305Z,4060.0000
2019-05-16T06:01:46.307Z,4111.0000
2019-05-16T06:02:50.846Z,4142.0000
2019-05-16T06:03:54.295Z,4163.0000
2019-05-16T06:04:59.564Z,4181.0000
2019-05-16T06:06:03.300Z,4212.0000
2019-05-16T06:07:06.340Z,4267.0000
2019-05-16T06:08:10.679Z,4343.0000
2019-05-16T06:09:25.271Z,4298.0000
2019-05-16T06:10:22.317Z,4204.0000
2019-05-16T06:11:25.333Z,4367.0000
2019-05-16T06:12:30.363Z,5117.0000
2019-05-16T06:13:33.289Z,5655.0000
2019-05-16T06:14:36.328Z,5761.0000
2019-05-16T06:15:39.967Z,6193.0000
2019-05-16T06:16:43.302Z,6221.0000
2019-05-16T06:17:46.299Z,5474.0000
2019-05-16T06:18:50.291Z,4626.0000
2019-05-16T06:19:53.302Z,4428.0000
2019-05-16T06:20:56.289Z,4399.0000
2019-05-16T06:22:01.002Z,4391.0000
2019-05-16T06:23:04.307Z,4451.0000
2019-05-16T06:24:07.355Z,4513.0000
2019-05-16T06:25:13.145Z,4601.0000
2019-05-16T06:26:20.148Z,4761.0000
2019-05-16T06:27:23.301Z,5324.0000
2019-05-16T06:28:26.349Z,6082.0000
2019-05-16T06:29:30.965Z,5644.0000
2019-05-16T06:30:34.319Z,7502.0000
2019-05-16T06:31:37.307Z,7280.0000
2019-05-16T06:32:40.342Z,6422.0000
2019-05-16T06:33:43.355Z,5896.0000
2019-05-16T06:34:46.297Z,5768.0000
2019-05-16T06:35:51.330Z,5988.0000
2019-05-16T06:36:54.287Z,5827.0000
2019-05-16T06:37:57.297Z,6646.0000
2019-05-16T06:39:00.318Z,6810.0000
2019-05-16T06:40:03.329Z,4911.0000
2019-05-16T06:41:06.309Z,7323.0000
2019-05-16T06:42:09.835Z,8299.0000
2019-05-16T06:43:13.328Z,9826.0000
2019-05-16T06:44:16.308Z,9691.0000
2019-05-16T06:45:20.485Z,7355.0000
2019-05-16T06:46:24.325Z,6588.0000
2019-05-16T06:47:27.334Z,5880.0000
2019-05-16T06:48:30.603Z,5500.0000
2019-05-16T06:49:34.343Z,5741.0000
2019-05-16T06:50:37.298Z,6398.0000
2019-05-16T06:51:40.344Z,7953.0000
2019-05-16T06:52:45.773Z,9384.0000
2019-05-16T06:53:50.073Z,8570.0000
2019-05-16T06:54:53.917Z,8725.0000
2019-05-16T06:55:56.301Z,7842.0000
2019-05-16T06:57:00.136Z,6346.0000
2019-05-16T06:58:03.334Z,10188.0000
2019-05-16T06:59:06.335Z,12026.0000
2019-05-16T07:00:10.980Z,12637.0000
2019-05-16T07:01:14.337Z,14246.0000
2019-05-16T07:02:27.791Z,15920.0000
2019-05-16T07:03:25.359Z,17752.0000
2019-05-16T07:04:30.329Z,17592.0000
2019-05-16T07:05:32.345Z,17056.0000
2019-05-16T07:06:51.668Z,18696.0000
2019-05-16T07:07:43.326Z,10955.0000
2019-05-16T07:08:46.292Z,25624.0000
2019-05-16T07:09:59.918Z,27944.0000
2019-05-16T07:10:57.353Z,24592.0000
2019-05-16T07:12:00.311Z,22248.0000
2019-05-16T07:13:03.355Z,19816.0000
2019-05-16T07:14:06.297Z,18760.0000
2019-05-16T07:15:12.464Z,18856.0000
2019-05-16T07:16:15.310Z,14532.0000
2019-05-16T07:17:20.198Z,10148.0000
2019-05-16T07:18:22.349Z,7536.0000
2019-05-16T07:19:25.335Z,6515.0000
2019-05-16T07:20:30.205Z,5783.0000
2019-05-16T07:21:33.273Z,6532.0000
2019-05-16T07:22:36.340Z,7461.0000
2019-05-16T07:23:40.466Z,7164.0000
2019-05-16T07:24:42.327Z,6058.0000
2019-05-16T07:25:45.328Z,8083.0000
2019-05-16T07:26:50.023Z,9245.0000
2019-05-16T07:27:53.341Z,8635.0000
2019-05-16T07:28:56.297Z,9664.0000
2019-05-16T07:30:01.069Z,9457.0000
2019-05-16T07:31:14.840Z,10009.0000
2019-05-16T07:32:12.681Z,8081.0000
2019-05-16T07:33:16.314Z,8723.0000
2019-05-16T07:34:20.643Z,13289.0000
2019-05-16T07:35:24.313Z,13105.0000
2019-05-16T07:36:27.341Z,9142.0000
2019-05-16T07:37:31.610Z,8872.0000
2019-05-16T07:38:35.311Z,10193.0000
2019-05-16T07:39:39.295Z,9718.0000
2019-05-16T07:40:45.301Z,9811.0000
2019-05-16T07:41:50.663Z,11079.0000
2019-05-16T07:42:54.323Z,11618.0000
2019-05-16T07:43:57.327Z,12819.0000
2019-05-16T07:45:00.687Z,13944.0000
2019-05-16T07:46:04.337Z,16409.0000
2019-05-16T07:47:07.310Z,18400.0000
2019-05-16T07:48:10.758Z,20248.0000
2019-05-16T07:49:14.306Z,19920.0000
2019-05-16T07:50:16.335Z,18376.0000
2019-05-16T07:51:20.519Z,18664.0000
2019-05-16T07:52:23.363Z,18032.0000
2019-05-16T07:53:26.336Z,19720.0000
2019-05-16T07:54:34.087Z,20088.0000
2019-05-16T07:55:37.315Z,21352.0000
2019-05-16T07:56:40.890Z,20696.0000
2019-05-16T07:57:44.353Z,18272.0000
2019-05-16T07:58:47.311Z,19360.0000
2019-05-16T07:59:50.667Z,23800.0000
2019-05-16T08:01:02.752Z,22848.0000
2019-05-16T08:02:02.332Z,21088.0000
2019-05-16T08:03:05.325Z,21288.0000
2019-05-16T08:04:10.438Z,22560.0000
2019-05-16T08:05:14.352Z,20968.0000
2019-05-16T08:06:17.313Z,20496.0000
2019-05-16T08:07:20.360Z,17103.0000
2019-05-16T08:08:24.545Z,15848.0000
2019-05-16T08:09:27.317Z,15836.0000
2019-05-16T08:10:37.935Z,19696.0000
2019-05-16T08:11:40.656Z,20824.0000
2019-05-16T08:12:44.394Z,19896.0000
2019-05-16T08:13:47.340Z,19752.0000
2019-05-16T08:14:50.378Z,20736.0000
2019-05-16T08:15:53.302Z,20336.0000
2019-05-16T08:16:56.312Z,19472.0000
2019-05-16T08:18:03.242Z,22376.0000
2019-05-16T08:19:06.347Z,19744.0000
2019-05-16T08:20:10.893Z,20016.0000
2019-05-16T08:21:16.893Z,20992.0000
2019-05-16T08:22:22.529Z,20992.0000
2019-05-16T08:23:26.334Z,19736.0000
2019-05-16T08:24:30.580Z,24888.0000
2019-05-16T08:25:36.304Z,24608.0000
2019-05-16T08:27:47.362Z,23656.0000
2019-05-16T08:28:50.668Z,22312.0000
2019-05-16T08:29:54.304Z,22984.0000
2019-05-16T08:31:00.594Z,23696.0000
2019-05-16T08:32:04.311Z,19432.0000
2019-05-16T08:33:07.314Z,15535.0000
2019-05-16T08:34:12.185Z,17280.0000
2019-05-16T08:35:15.322Z,20896.0000
2019-05-16T08:36:20.640Z,20136.0000
2019-05-16T08:38:32.318Z,24392.0000
2019-05-16T08:39:35.311Z,25200.0000
2019-05-16T08:41:01.221Z,25752.0000
2019-05-16T08:41:46.289Z,28240.0000
2019-05-16T08:42:51.658Z,28536.0000
2019-05-16T08:43:54.330Z,27888.0000
2019-05-16T08:44:57.308Z,31480.0000
2019-05-16T08:46:01.038Z,34304.0000
2019-05-16T08:47:06.272Z,34408.0000
2019-05-16T08:48:11.502Z,32728.0000
2019-05-16T08:49:14.374Z,32464.0000
2019-05-16T08:50:08.650Z,20152.0000
2019-05-16T08:50:17.299Z,31600.0000
2019-05-16T08:51:22.182Z,29184.0000
2019-05-16T08:52:25.266Z,28080.0000
2019-05-16T08:53:31.401Z,25280.0000
2019-05-16T08:54:36.396Z,24040.0000
2019-05-16T08:55:43.328Z,24072.0000
2019-05-16T08:56:46.333Z,26456.0000
2019-05-16T08:57:53.017Z,29176.0000
2019-05-16T08:58:56.345Z,30256.0000
2019-05-16T09:00:01.376Z,37808.0000
2019-05-16T09:01:05.303Z,30792.0000
2019-05-16T09:02:12.001Z,36608.0000
2019-05-16T09:03:15.320Z,31752.0000
2019-05-16T09:04:23.862Z,32280.0000
2019-05-16T09:05:26.440Z,34192.0000
2019-05-16T09:06:31.993Z,36440.0000
2019-05-16T09:07:35.365Z,36392.0000
2019-05-16T09:08:38.339Z,46224.0000
2019-05-16T09:09:48.696Z,37816.0000
2019-05-16T09:10:10.717Z,23224.0000
2019-05-16T09:11:00.766Z,57632.0000
2019-05-16T09:11:57.575Z,31320.0000
2019-05-16T09:13:00.383Z,32936.0000
2019-05-16T09:14:03.313Z,35912.0000
2019-05-16T09:15:07.644Z,33808.0000
2019-05-16T09:16:11.331Z,28352.0000
2019-05-16T09:17:14.339Z,31168.0000
2019-05-16T09:18:17.869Z,26512.0000
2019-05-16T09:19:21.344Z,56096.0000
2019-05-16T09:20:24.299Z,47416.0000
2019-05-16T09:21:27.640Z,30480.0000
2019-05-16T09:22:31.305Z,53536.0000
2019-05-16T09:23:34.305Z,30760.0000
2019-05-16T09:24:37.824Z,31160.0000
2019-05-16T09:25:41.264Z,30048.0000
2019-05-16T09:26:47.161Z,29736.0000
2019-05-16T09:27:50.312Z,28432.0000
2019-05-16T09:28:53.299Z,28416.0000
2019-05-16T09:29:56.900Z,49712.0000
2019-05-16T09:31:00.300Z,24912.0000
2019-05-16T09:32:15.918Z,22984.0000
2019-05-16T09:33:11.266Z,20328.0000
2019-05-16T09:34:17.302Z,22448.0000
2019-05-16T09:35:21.332Z,23488.0000
2019-05-16T09:36:24.389Z,23960.0000
2019-05-16T09:37:27.299Z,25240.0000
2019-05-16T09:38:30.302Z,25384.0000
2019-05-16T09:39:33.319Z,24568.0000
2019-05-16T09:40:38.877Z,27568.0000
2019-05-16T09:41:50.609Z,27208.0000
2019-05-16T09:42:50.310Z,26624.0000
2019-05-16T09:43:53.346Z,27016.0000
2019-05-16T09:44:57.740Z,27800.0000
2019-05-16T09:46:07.590Z,27312.0000
2019-05-16T09:47:09.311Z,26816.0000
2019-05-16T09:48:12.339Z,28552.0000
2019-05-16T09:49:20.392Z,31664.0000
2019-05-16T09:50:23.321Z,28192.0000
2019-05-16T09:51:27.154Z,25752.0000
2019-05-16T09:52:30.341Z,24176.0000
2019-05-16T09:53:33.305Z,23520.0000
2019-05-16T09:54:37.902Z,23328.0000
2019-05-16T09:55:41.289Z,23616.0000
2019-05-16T09:56:46.369Z,25416.0000
2019-05-16T09:57:50.346Z,26496.0000
2019-05-16T09:58:52.313Z,27056.0000
2019-05-16T09:59:57.203Z,28624.0000
2019-05-16T10:01:00.314Z,28392.0000
2019-05-16T10:02:02.361Z,24840.0000
2019-05-16T10:03:07.096Z,25448.0000
2019-05-16T10:04:10.287Z,27000.0000
2019-05-16T10:05:13.873Z,27672.0000
2019-05-16T10:06:19.135Z,28736.0000
2019-05-16T10:07:22.370Z,31744.0000
2019-05-16T10:08:26.554Z,33248.0000
2019-05-16T10:09:40.735Z,34448.0000
2019-05-16T10:10:38.330Z,42528.0000
2019-05-16T10:11:42.550Z,32032.0000
2019-05-16T10:12:46.287Z,29440.0000
2019-05-16T10:13:49.371Z,28360.0000
2019-05-16T10:14:52.310Z,25168.0000
2019-05-16T10:15:55.336Z,29008.0000
2019-05-16T10:16:58.328Z,28376.0000
2019-05-16T10:18:01.320Z,31056.0000
2019-05-16T10:19:04.291Z,65535.0000
2019-05-16T10:20:07.886Z,33144.0000
2019-05-16T10:21:11.351Z,32216.0000
2019-05-16T10:22:16.888Z,27736.0000
2019-05-16T10:23:20.335Z,25672.0000
2019-05-16T10:27:39.680Z,35816.0000
2019-05-16T10:28:42.304Z,33464.0000
2019-05-16T10:29:48.094Z,36808.0000
2019-05-16T10:30:52.366Z,38960.0000
2019-05-16T10:31:56.860Z,50648.0000
2019-05-16T10:33:00.978Z,46152.0000
2019-05-16T10:34:03.350Z,45168.0000
2019-05-16T10:35:06.332Z,50448.0000
2019-05-16T10:36:09.333Z,65535.0000
2019-05-16T10:37:12.311Z,51968.0000
2019-05-16T10:38:15.305Z,48200.0000
2019-05-16T10:39:18.303Z,65535.0000
2019-05-16T10:40:21.341Z,53544.0000
2019-05-16T10:41:24.318Z,42584.0000
2019-05-16T10:42:28.906Z,50680.0000
2019-05-16T10:43:32.296Z,35024.0000
2019-05-16T10:44:38.542Z,36936.0000
2019-05-16T10:45:42.303Z,35696.0000
2019-05-16T10:46:47.645Z,35880.0000
2019-05-16T10:47:50.290Z,65535.0000
2019-05-16T10:48:52.627Z,48856.0000
2019-05-16T10:49:56.487Z,34864.0000
2019-05-16T10:51:00.296Z,37184.0000
2019-05-16T10:52:03.341Z,45656.0000
2019-05-16T10:53:23.699Z,46008.0000
2019-05-16T10:54:17.715Z,44352.0000
2019-05-16T10:55:21.329Z,65535.0000
2019-05-16T10:56:24.356Z,65535.0000
2019-05-16T10:57:29.804Z,65535.0000
2019-05-16T10:58:41.401Z,36776.0000
2019-05-16T11:00:06.832Z,65535.0000
2019-05-16T11:01:11.159Z,65535.0000
2019-05-16T11:01:59.686Z,47448.0000
2019-05-16T11:03:03.317Z,34776.0000
2019-05-16T11:04:07.474Z,34840.0000
2019-05-16T11:05:25.133Z,40768.0000
2019-05-16T11:06:25.580Z,43576.0000
2019-05-16T11:07:29.878Z,45736.0000
2019-05-16T11:08:33.344Z,62448.0000
2019-05-16T11:09:39.175Z,54672.0000
2019-05-16T11:10:42.463Z,48016.0000
2019-05-16T11:11:47.621Z,41968.0000
2019-05-16T11:12:55.209Z,61032.0000
2019-05-16T11:13:58.332Z,65535.0000
2019-05-16T11:15:01.351Z,65535.0000
2019-05-16T11:16:06.941Z,62296.0000
2019-05-16T11:17:13.864Z,39960.0000
2019-05-16T11:18:17.640Z,47776.0000
2019-05-16T11:19:24.445Z,65535.0000
2019-05-16T11:20:28.369Z,64152.0000
2019-05-16T11:21:31.350Z,65535.0000
2019-05-16T11:22:36.787Z,49032.0000
2019-05-16T11:23:40.301Z,53416.0000
2019-05-16T11:24:43.330Z,51064.0000
2019-05-16T11:25:47.098Z,65535.0000
2019-05-16T11:26:50.446Z,65535.0000
2019-05-16T11:27:53.281Z,47800.0000
2019-05-16T11:28:57.351Z,45704.0000
2019-05-16T11:30:00.313Z,40824.0000
2019-05-16T11:31:04.029Z,49904.0000
2019-05-16T11:32:07.356Z,65535.0000
2019-05-16T11:33:10.307Z,65535.0000
2019-05-16T11:34:13.333Z,51904.0000
2019-05-16T11:35:17.135Z,65535.0000
2019-05-16T11:36:20.323Z,65535.0000
2019-05-16T11:37:23.347Z,65535.0000
2019-05-16T11:38:26.343Z,57512.0000
2019-05-16T11:39:29.281Z,37192.0000
2019-05-16T11:40:32.288Z,37320.0000
2019-05-16T11:41:35.364Z,44344.0000
2019-05-16T11:42:38.396Z,65535.0000
2019-05-16T11:43:41.312Z,65535.0000
2019-05-16T11:44:47.592Z,65535.0000
2019-05-16T11:45:51.336Z,65535.0000
2019-05-16T11:46:54.300Z,65535.0000
2019-05-16T11:47:57.383Z,65535.0000
2019-05-16T11:49:00.317Z,65535.0000
2019-05-16T11:50:03.319Z,65535.0000
2019-05-16T11:51:07.081Z,65535.0000
2019-05-16T11:52:10.323Z,65535.0000
2019-05-16T11:53:13.379Z,65535.0000
2019-05-16T11:54:16.338Z,65535.0000
2019-05-16T11:55:19.328Z,65535.0000
2019-05-16T11:56:22.286Z,65535.0000
2019-05-16T11:57:25.349Z,65535.0000
2019-05-16T11:58:28.343Z,65535.0000
2019-05-16T11:59:31.348Z,65535.0000
2019-05-16T12:00:33.303Z,65535.0000
2019-05-16T12:01:36.952Z,42416.0000
2019-05-16T12:02:42.674Z,33784.0000
2019-05-16T12:03:46.829Z,33256.0000
2019-05-16T12:04:50.306Z,36424.0000
2019-05-16T12:05:53.307Z,34336.0000
2019-05-16T12:06:57.433Z,33288.0000
2019-05-16T12:08:00.341Z,32288.0000
2019-05-16T12:09:03.342Z,32552.0000
2019-05-16T12:10:07.610Z,32000.0000
2019-05-16T12:11:10.321Z,28712.0000
2019-05-16T12:12:13.304Z,24728.0000
2019-05-16T12:13:25.405Z,24288.0000
2019-05-16T12:14:24.344Z,26776.0000
2019-05-16T12:15:27.518Z,26528.0000
2019-05-16T12:16:30.358Z,29560.0000
2019-05-16T12:17:33.300Z,32200.0000
2019-05-16T12:18:37.286Z,35088.0000
2019-05-16T12:19:43.994Z,39936.0000
2019-05-16T12:20:47.378Z,44784.0000
2019-05-16T12:21:50.280Z,42720.0000
2019-05-16T12:22:53.322Z,36232.0000